sensor_id;sensor_type;location;lat;lon;timestamp;pressure;altitude;pressure_sealevel;temperature;humidity
63694;BME280;49839;51.798;10.954;2022-10-17T00:01:04;99589.16;;;14.64;nan
63694;BME280;49839;51.798;10.954;2022-10-17T00:03:32;99585.94;;;14.59;nan
63694;BME280;49839;51.798;10.954;2022-10-17T00:06:04;99585.09;;;14.58;nan
63694;BME280;49839;51.798;10.954;2022-10-17T00:08:32;99590.56;;;14.55;nan
63694;BME280;49839;51.798;10.954;2022-10-17T00:11:03;99589.28;;;14.48;nan
63694;BME280;49839;51.798;10.954;2022-10-17T00:13:33;99594.91;;;14.42;nan
63694;BME280;49839;51.798;10.954;2022-10-17T00:16:01;99593.59;;;14.35;nan
63694;BME280;49839;51.798;10.954;2022-10-17T00:18:29;99587.09;;;14.26;nan
63694;BME280;49839;51.798;10.954;2022-10-17T00:20:57;99594.31;;;14.24;nan
63694;BME280;49839;51.798;10.954;2022-10-17T00:23:24;99592.66;;;14.22;nan
63694;BME280;49839;51.798;10.954;2022-10-17T00:25:59;99592.97;;;14.17;nan
63694;BME280;49839;51.798;10.954;2022-10-17T00:28:28;99587.94;;;14.13;nan
63694;BME280;49839;51.798;10.954;2022-10-17T00:30:58;99580.09;;;14.11;nan
63694;BME280;49839;51.798;10.954;2022-10-17T00:33:26;99583.69;;;14.10;nan
63694;BME280;49839;51.798;10.954;2022-10-17T00:36:05;99578.59;;;14.07;nan
63694;BME280;49839;51.798;10.954;2022-10-17T00:38:33;99583.97;;;14.05;nan
63694;BME280;49839;51.798;10.954;2022-10-17T00:41:02;99589.44;;;14.02;nan
63694;BME280;49839;51.798;10.954;2022-10-17T00:43:48;99584.47;;;13.98;nan
63694;BME280;49839;51.798;10.954;2022-10-17T00:46:18;99585.69;;;13.92;nan
63694;BME280;49839;51.798;10.954;2022-10-17T00:48:47;99588.41;;;13.91;nan
63694;BME280;49839;51.798;10.954;2022-10-17T00:51:18;99590.31;;;13.89;nan
63694;BME280;49839;51.798;10.954;2022-10-17T00:53:47;99582.25;;;13.90;nan
63694;BME280;49839;51.798;10.954;2022-10-17T00:56:18;99585.75;;;13.91;nan
63694;BME280;49839;51.798;10.954;2022-10-17T00:58:46;99589.28;;;13.91;nan
63694;BME280;49839;51.798;10.954;2022-10-17T01:01:14;99579.72;;;13.89;nan
63694;BME280;49839;51.798;10.954;2022-10-17T01:03:43;99572.72;;;13.88;nan
63694;BME280;49839;51.798;10.954;2022-10-17T01:06:11;99574.41;;;13.89;nan
63694;BME280;49839;51.798;10.954;2022-10-17T01:08:39;99578.84;;;13.88;nan
63694;BME280;49839;51.798;10.954;2022-10-17T01:11:16;99570.91;;;13.88;nan
63694;BME280;49839;51.798;10.954;2022-10-17T01:13:51;99584.53;;;13.82;nan
63694;BME280;49839;51.798;10.954;2022-10-17T01:16:27;99584.91;;;13.76;nan
63694;BME280;49839;51.798;10.954;2022-10-17T01:19:07;99577.16;;;13.73;nan
63694;BME280;49839;51.798;10.954;2022-10-17T01:21:47;99587.75;;;13.73;nan
63694;BME280;49839;51.798;10.954;2022-10-17T01:24:45;99586.78;;;13.74;nan
63694;BME280;49839;51.798;10.954;2022-10-17T01:33:13;99588.19;;;13.65;nan
63694;BME280;49839;51.798;10.954;2022-10-17T01:35:50;99583.06;;;13.62;nan
63694;BME280;49839;51.798;10.954;2022-10-17T01:38:21;99577.88;;;13.61;nan
63694;BME280;49839;51.798;10.954;2022-10-17T01:40:55;99581.47;;;13.60;nan
63694;BME280;49839;51.798;10.954;2022-10-17T01:43:32;99583.28;;;13.59;nan
63694;BME280;49839;51.798;10.954;2022-10-17T01:46:06;99579.75;;;13.59;nan
63694;BME280;49839;51.798;10.954;2022-10-17T01:48:40;99579.75;;;13.59;nan
63694;BME280;49839;51.798;10.954;2022-10-17T01:51:14;99582.59;;;13.55;nan
63694;BME280;49839;51.798;10.954;2022-10-17T01:53:49;99570.31;;;13.54;nan
63694;BME280;49839;51.798;10.954;2022-10-17T01:56:21;99569.56;;;13.52;nan
63694;BME280;49839;51.798;10.954;2022-10-17T01:58:55;99571.25;;;13.53;nan
63694;BME280;49839;51.798;10.954;2022-10-17T02:01:25;99565.97;;;13.53;nan
63694;BME280;49839;51.798;10.954;2022-10-17T02:03:58;99566.81;;;13.54;nan
63694;BME280;49839;51.798;10.954;2022-10-17T02:06:27;99563.22;;;13.55;nan
63694;BME280;49839;51.798;10.954;2022-10-17T02:08:55;99564.31;;;13.51;nan
63694;BME280;49839;51.798;10.954;2022-10-17T02:11:25;99570.75;;;13.47;nan
63694;BME280;49839;51.798;10.954;2022-10-17T02:14:07;99562.03;;;13.45;nan
63694;BME280;49839;51.798;10.954;2022-10-17T02:16:42;99561.19;;;13.44;nan
63694;BME280;49839;51.798;10.954;2022-10-17T02:19:36;99547.09;;;13.44;nan
63694;BME280;49839;51.798;10.954;2022-10-17T02:22:15;99554.59;;;13.51;nan
63694;BME280;49839;51.798;10.954;2022-10-17T02:24:49;99544.69;;;13.55;nan
63694;BME280;49839;51.798;10.954;2022-10-17T02:27:33;99544.03;;;13.66;nan
63694;BME280;49839;51.798;10.954;2022-10-17T02:30:10;99537.91;;;13.79;nan
63694;BME280;49839;51.798;10.954;2022-10-17T02:32:42;99529.19;;;13.92;nan
63694;BME280;49839;51.798;10.954;2022-10-17T02:35:19;99535.06;;;14.11;nan
63694;BME280;49839;51.798;10.954;2022-10-17T02:37:49;99536.00;;;14.24;nan
63694;BME280;49839;51.798;10.954;2022-10-17T02:40:20;99542.22;;;14.38;nan
63694;BME280;49839;51.798;10.954;2022-10-17T02:42:50;99533.59;;;14.48;nan
63694;BME280;49839;51.798;10.954;2022-10-17T02:45:22;99540.34;;;14.67;nan
63694;BME280;49839;51.798;10.954;2022-10-17T02:47:57;99543.16;;;14.78;nan
63694;BME280;49839;51.798;10.954;2022-10-17T02:50:35;99533.66;;;14.88;nan
63694;BME280;49839;51.798;10.954;2022-10-17T02:53:09;99535.69;;;14.97;nan
63694;BME280;49839;51.798;10.954;2022-10-17T02:55:42;99531.69;;;15.04;nan
63694;BME280;49839;51.798;10.954;2022-10-17T02:58:16;99524.06;;;15.12;nan
63694;BME280;49839;51.798;10.954;2022-10-17T03:00:46;99534.19;;;15.20;nan
63694;BME280;49839;51.798;10.954;2022-10-17T03:03:21;99532.72;;;15.29;nan
63694;BME280;49839;51.798;10.954;2022-10-17T03:05:51;99531.34;;;15.36;nan
63694;BME280;49839;51.798;10.954;2022-10-17T03:08:20;99536.97;;;15.44;nan
63694;BME280;49839;51.798;10.954;2022-10-17T03:10:49;99534.13;;;15.47;nan
63694;BME280;49839;51.798;10.954;2022-10-17T03:13:17;99533.03;;;15.50;nan
63694;BME280;49839;51.798;10.954;2022-10-17T03:15:46;99528.47;;;15.52;nan
63694;BME280;49839;51.798;10.954;2022-10-17T03:18:14;99523.06;;;15.53;nan
63694;BME280;49839;51.798;10.954;2022-10-17T03:20:42;99535.28;;;15.56;nan
63694;BME280;49839;51.798;10.954;2022-10-17T03:23:11;99528.91;;;15.58;nan
63694;BME280;49839;51.798;10.954;2022-10-17T03:25:39;99530.44;;;15.62;nan
63694;BME280;49839;51.798;10.954;2022-10-17T03:28:08;99536.47;;;15.64;nan
63694;BME280;49839;51.798;10.954;2022-10-17T03:30:37;99532.88;;;15.65;nan
63694;BME280;49839;51.798;10.954;2022-10-17T03:33:05;99535.44;;;15.67;nan
63694;BME280;49839;51.798;10.954;2022-10-17T03:35:37;99534.47;;;15.68;nan
63694;BME280;49839;51.798;10.954;2022-10-17T03:38:06;99536.06;;;15.70;nan
63694;BME280;49839;51.798;10.954;2022-10-17T03:40:35;99536.81;;;15.73;nan
63694;BME280;49839;51.798;10.954;2022-10-17T03:43:04;99540.22;;;15.75;nan
63694;BME280;49839;51.798;10.954;2022-10-17T03:45:32;99546.19;;;15.78;nan
63694;BME280;49839;51.798;10.954;2022-10-17T03:48:00;99550.59;;;15.78;nan
63694;BME280;49839;51.798;10.954;2022-10-17T03:50:28;99548.84;;;15.78;nan
63694;BME280;49839;51.798;10.954;2022-10-17T03:52:56;99551.38;;;15.80;nan
63694;BME280;49839;51.798;10.954;2022-10-17T03:55:24;99553.06;;;15.81;nan
63694;BME280;49839;51.798;10.954;2022-10-17T03:57:54;99560.81;;;15.84;nan
63694;BME280;49839;51.798;10.954;2022-10-17T04:00:22;99559.97;;;15.83;nan
63694;BME280;49839;51.798;10.954;2022-10-17T04:02:50;99562.53;;;15.85;nan
63694;BME280;49839;51.798;10.954;2022-10-17T04:05:18;99563.28;;;15.87;nan
63694;BME280;49839;51.798;10.954;2022-10-17T04:07:46;99558.81;;;15.87;nan
63694;BME280;49839;51.798;10.954;2022-10-17T04:10:15;99556.88;;;15.89;nan
63694;BME280;49839;51.798;10.954;2022-10-17T04:12:43;99565.81;;;15.88;nan
63694;BME280;49839;51.798;10.954;2022-10-17T04:15:14;99564.13;;;15.87;nan
63694;BME280;49839;51.798;10.954;2022-10-17T04:17:42;99565.94;;;15.87;nan
63694;BME280;49839;51.798;10.954;2022-10-17T04:20:12;99569.56;;;15.86;nan
63694;BME280;49839;51.798;10.954;2022-10-17T04:22:40;99572.22;;;15.86;nan
63694;BME280;49839;51.798;10.954;2022-10-17T04:25:09;99561.47;;;15.87;nan
63694;BME280;49839;51.798;10.954;2022-10-17T04:27:37;99572.09;;;15.87;nan
63694;BME280;49839;51.798;10.954;2022-10-17T04:30:06;99576.44;;;15.88;nan
63694;BME280;49839;51.798;10.954;2022-10-17T04:32:37;99570.28;;;15.88;nan
63694;BME280;49839;51.798;10.954;2022-10-17T04:35:06;99572.09;;;15.87;nan
63694;BME280;49839;51.798;10.954;2022-10-17T04:37:34;99572.94;;;15.88;nan
63694;BME280;49839;51.798;10.954;2022-10-17T04:40:02;99568.47;;;15.88;nan
63694;BME280;49839;51.798;10.954;2022-10-17T04:42:31;99569.44;;;15.87;nan
63694;BME280;49839;51.798;10.954;2022-10-17T04:44:59;99562.44;;;15.86;nan
63694;BME280;49839;51.798;10.954;2022-10-17T04:47:27;99567.00;;;15.84;nan
63694;BME280;49839;51.798;10.954;2022-10-17T04:49:57;99565.19;;;15.85;nan
63694;BME280;49839;51.798;10.954;2022-10-17T04:52:25;99570.28;;;15.88;nan
63694;BME280;49839;51.798;10.954;2022-10-17T04:54:54;99562.97;;;15.91;nan
63694;BME280;49839;51.798;10.954;2022-10-17T04:57:23;99567.31;;;15.92;nan
63694;BME280;49839;51.798;10.954;2022-10-17T04:59:51;99566.25;;;15.95;nan
63694;BME280;49839;51.798;10.954;2022-10-17T05:02:19;99567.84;;;15.97;nan
63694;BME280;49839;51.798;10.954;2022-10-17T05:04:47;99568.59;;;16.00;nan
63694;BME280;49839;51.798;10.954;2022-10-17T05:07:17;99565.94;;;16.00;nan
63694;BME280;49839;51.798;10.954;2022-10-17T05:09:45;99560.50;;;16.01;nan
63694;BME280;49839;51.798;10.954;2022-10-17T05:12:13;99563.88;;;16.03;nan
63694;BME280;49839;51.798;10.954;2022-10-17T05:14:42;99565.50;;;16.06;nan
63694;BME280;49839;51.798;10.954;2022-10-17T05:17:10;99565.38;;;16.07;nan
63694;BME280;49839;51.798;10.954;2022-10-17T05:19:38;99562.63;;;16.09;nan
63694;BME280;49839;51.798;10.954;2022-10-17T05:22:06;99572.28;;;16.10;nan
63694;BME280;49839;51.798;10.954;2022-10-17T05:24:36;99574.09;;;16.09;nan
63694;BME280;49839;51.798;10.954;2022-10-17T05:27:04;99580.25;;;16.10;nan
63694;BME280;49839;51.798;10.954;2022-10-17T05:29:33;99574.94;;;16.10;nan
63694;BME280;49839;51.798;10.954;2022-10-17T05:32:02;99575.81;;;16.10;nan
63694;BME280;49839;51.798;10.954;2022-10-17T05:34:30;99576.66;;;16.11;nan
63694;BME280;49839;51.798;10.954;2022-10-17T05:36:58;99578.38;;;16.12;nan
63694;BME280;49839;51.798;10.954;2022-10-17T05:39:27;99574.63;;;16.14;nan
63694;BME280;49839;51.798;10.954;2022-10-17T05:42:00;99579.94;;;16.14;nan
63694;BME280;49839;51.798;10.954;2022-10-17T05:44:28;99587.91;;;16.14;nan
63694;BME280;49839;51.798;10.954;2022-10-17T05:46:56;99590.47;;;16.16;nan
63694;BME280;49839;51.798;10.954;2022-10-17T05:49:25;99586.00;;;16.16;nan
63694;BME280;49839;51.798;10.954;2022-10-17T05:52:09;99582.19;;;16.20;nan
63694;BME280;49839;51.798;10.954;2022-10-17T05:54:38;99588.13;;;16.24;nan
63694;BME280;49839;51.798;10.954;2022-10-17T05:57:07;99582.47;;;16.29;nan
63694;BME280;49839;51.798;10.954;2022-10-17T05:59:35;99578.53;;;16.34;nan
63694;BME280;49839;51.798;10.954;2022-10-17T06:02:03;99585.22;;;16.40;nan
63694;BME280;49839;51.798;10.954;2022-10-17T06:04:32;99585.03;;;16.43;nan
63694;BME280;49839;51.798;10.954;2022-10-17T06:07:00;99578.38;;;16.48;nan
63694;BME280;49839;51.798;10.954;2022-10-17T06:09:28;99585.09;;;16.54;nan
63694;BME280;49839;51.798;10.954;2022-10-17T06:11:56;99581.97;;;16.60;nan
63694;BME280;49839;51.798;10.954;2022-10-17T06:14:25;99590.19;;;16.70;nan
63694;BME280;49839;51.798;10.954;2022-10-17T06:16:54;99591.56;;;16.75;nan
63694;BME280;49839;51.798;10.954;2022-10-17T06:19:22;99593.53;;;16.85;nan
63694;BME280;49839;51.798;10.954;2022-10-17T06:21:50;99605.44;;;16.92;nan
63694;BME280;49839;51.798;10.954;2022-10-17T06:24:18;99605.84;;;16.98;nan
63694;BME280;49839;51.798;10.954;2022-10-17T06:26:46;99605.38;;;17.04;nan
63694;BME280;49839;51.798;10.954;2022-10-17T06:29:15;99595.97;;;17.12;nan
63694;BME280;49839;51.798;10.954;2022-10-17T06:31:45;99610.53;;;17.19;nan
63694;BME280;49839;51.798;10.954;2022-10-17T06:34:14;99617.22;;;17.24;nan
63694;BME280;49839;51.798;10.954;2022-10-17T06:36:42;99610.00;;;17.26;nan
63694;BME280;49839;51.798;10.954;2022-10-17T06:39:11;99616.66;;;17.32;nan
63694;BME280;49839;51.798;10.954;2022-10-17T06:41:39;99607.59;;;17.35;nan
63694;BME280;49839;51.798;10.954;2022-10-17T06:44:10;99603.97;;;17.36;nan
63694;BME280;49839;51.798;10.954;2022-10-17T06:46:39;99603.84;;;17.37;nan
63694;BME280;49839;51.798;10.954;2022-10-17T06:49:10;99609.81;;;17.41;nan
63694;BME280;49839;51.798;10.954;2022-10-17T06:51:38;99618.41;;;17.44;nan
63694;BME280;49839;51.798;10.954;2022-10-17T06:54:06;99621.56;;;17.49;nan
63694;BME280;49839;51.798;10.954;2022-10-17T06:56:34;99610.69;;;17.52;nan
63694;BME280;49839;51.798;10.954;2022-10-17T06:59:03;99613.97;;;17.56;nan
63694;BME280;49839;51.798;10.954;2022-10-17T07:01:31;99607.44;;;17.60;nan
63694;BME280;49839;51.798;10.954;2022-10-17T07:03:59;99615.19;;;17.63;nan
63694;BME280;49839;51.798;10.954;2022-10-17T07:06:29;99615.69;;;17.68;nan
63694;BME280;49839;51.798;10.954;2022-10-17T07:08:58;99610.06;;;17.73;nan
63694;BME280;49839;51.798;10.954;2022-10-17T07:11:28;99607.91;;;17.78;nan
63694;BME280;49839;51.798;10.954;2022-10-17T07:13:57;99606.81;;;17.80;nan
63694;BME280;49839;51.798;10.954;2022-10-17T07:16:25;99603.66;;;17.86;nan
63694;BME280;49839;51.798;10.954;2022-10-17T07:18:54;99606.00;;;17.91;nan
63694;BME280;49839;51.798;10.954;2022-10-17T07:21:23;99602.94;;;17.96;nan
63694;BME280;49839;51.798;10.954;2022-10-17T07:23:53;99604.28;;;18.01;nan
63694;BME280;49839;51.798;10.954;2022-10-17T07:26:22;99601.41;;;18.04;nan
63694;BME280;49839;51.798;10.954;2022-10-17T07:28:53;99604.53;;;18.09;nan
63694;BME280;49839;51.798;10.954;2022-10-17T07:31:22;99615.47;;;18.18;nan
63694;BME280;49839;51.798;10.954;2022-10-17T07:33:51;99620.06;;;18.27;nan
63694;BME280;49839;51.798;10.954;2022-10-17T07:36:22;99617.06;;;18.31;nan
63694;BME280;49839;51.798;10.954;2022-10-17T07:38:54;99622.88;;;18.36;nan
63694;BME280;49839;51.798;10.954;2022-10-17T07:41:22;99623.34;;;18.41;nan
63694;BME280;49839;51.798;10.954;2022-10-17T07:43:51;99624.94;;;18.44;nan
63694;BME280;49839;51.798;10.954;2022-10-17T07:46:20;99625.16;;;18.52;nan
63694;BME280;49839;51.798;10.954;2022-10-17T07:48:49;99625.03;;;18.54;nan
63694;BME280;49839;51.798;10.954;2022-10-17T07:51:18;99634.66;;;18.56;nan
63694;BME280;49839;51.798;10.954;2022-10-17T07:53:47;99627.97;;;18.62;nan
63694;BME280;49839;51.798;10.954;2022-10-17T07:56:17;99620.44;;;18.67;nan
63694;BME280;49839;51.798;10.954;2022-10-17T07:58:47;99624.84;;;18.68;nan
63694;BME280;49839;51.798;10.954;2022-10-17T08:01:16;99629.78;;;18.73;nan
63694;BME280;49839;51.798;10.954;2022-10-17T08:03:46;99612.94;;;18.72;nan
63694;BME280;49839;51.798;10.954;2022-10-17T08:06:17;99616.09;;;18.77;nan
63694;BME280;49839;51.798;10.954;2022-10-17T08:08:46;99626.25;;;18.83;nan
63694;BME280;49839;51.798;10.954;2022-10-17T08:11:14;99606.81;;;18.92;nan
63694;BME280;49839;51.798;10.954;2022-10-17T08:13:44;99600.88;;;19.00;nan
63694;BME280;49839;51.798;10.954;2022-10-17T08:16:12;99612.47;;;19.10;nan
63694;BME280;49839;51.798;10.954;2022-10-17T08:18:41;99614.78;;;19.15;nan
63694;BME280;49839;51.798;10.954;2022-10-17T08:21:13;99622.16;;;19.23;nan
63694;BME280;49839;51.798;10.954;2022-10-17T08:23:41;99622.25;;;19.32;nan
63694;BME280;49839;51.798;10.954;2022-10-17T08:26:10;99623.28;;;19.52;nan
63694;BME280;49839;51.798;10.954;2022-10-17T08:28:39;99611.09;;;20.01;nan
63694;BME280;49839;51.798;10.954;2022-10-17T08:31:11;99593.41;;;20.40;nan
63694;BME280;49839;51.798;10.954;2022-10-17T08:33:40;99598.25;;;20.87;nan
63694;BME280;49839;51.798;10.954;2022-10-17T08:36:11;99603.19;;;21.10;nan
63694;BME280;49839;51.798;10.954;2022-10-17T08:38:41;99595.47;;;21.27;nan
63694;BME280;49839;51.798;10.954;2022-10-17T08:41:14;99613.56;;;21.34;nan
63694;BME280;49839;51.798;10.954;2022-10-17T08:44:04;99589.97;;;21.38;nan
63694;BME280;49839;51.798;10.954;2022-10-17T08:46:43;99596.34;;;21.37;nan
63694;BME280;49839;51.798;10.954;2022-10-17T08:49:22;99585.47;;;21.29;nan
63694;BME280;49839;51.798;10.954;2022-10-17T08:51:57;99600.53;;;21.20;nan
63694;BME280;49839;51.798;10.954;2022-10-17T08:54:37;99584.88;;;21.16;nan
63694;BME280;49839;51.798;10.954;2022-10-17T08:57:11;99580.47;;;21.05;nan
63694;BME280;49839;51.798;10.954;2022-10-17T08:59:42;99581.47;;;21.04;nan
63694;BME280;49839;51.798;10.954;2022-10-17T09:02:27;99580.63;;;21.03;nan
63694;BME280;49839;51.798;10.954;2022-10-17T09:08:04;99583.16;;;21.05;nan
63694;BME280;49839;51.798;10.954;2022-10-17T09:10:44;99580.22;;;21.08;nan
63694;BME280;49839;51.798;10.954;2022-10-17T09:13:21;99578.66;;;21.15;nan
63694;BME280;49839;51.798;10.954;2022-10-17T09:16:13;99581.50;;;21.23;nan
63694;BME280;49839;51.798;10.954;2022-10-17T09:18:54;99578.41;;;21.28;nan
63694;BME280;49839;51.798;10.954;2022-10-17T09:21:32;99576.03;;;21.34;nan
63694;BME280;49839;51.798;10.954;2022-10-17T09:24:05;99589.41;;;21.44;nan
63694;BME280;49839;51.798;10.954;2022-10-17T09:26:44;99576.28;;;21.51;nan
63694;BME280;49839;51.798;10.954;2022-10-17T09:29:19;99586.16;;;21.70;nan
63694;BME280;49839;51.798;10.954;2022-10-17T09:31:55;99565.38;;;21.91;nan
63694;BME280;49839;51.798;10.954;2022-10-17T09:34:29;99576.88;;;22.21;nan
63694;BME280;49839;51.798;10.954;2022-10-17T09:36:59;99590.78;;;22.71;nan
63694;BME280;49839;51.798;10.954;2022-10-17T09:39:29;99572.81;;;22.99;nan
63694;BME280;49839;51.798;10.954;2022-10-17T09:42:00;99600.06;;;23.04;nan
63694;BME280;49839;51.798;10.954;2022-10-17T09:44:31;99596.84;;;23.18;nan
63694;BME280;49839;51.798;10.954;2022-10-17T09:47:21;99597.00;;;23.17;nan
63694;BME280;49839;51.798;10.954;2022-10-17T09:49:53;99577.97;;;23.10;nan
63694;BME280;49839;51.798;10.954;2022-10-17T09:52:27;99591.34;;;23.20;nan
63694;BME280;49839;51.798;10.954;2022-10-17T09:55:00;99576.19;;;23.01;nan
63694;BME280;49839;51.798;10.954;2022-10-17T09:57:50;99585.38;;;22.81;nan
63694;BME280;49839;51.798;10.954;2022-10-17T10:00:21;99596.09;;;22.81;nan
63694;BME280;49839;51.798;10.954;2022-10-17T10:02:49;99589.91;;;22.80;nan
63694;BME280;49839;51.798;10.954;2022-10-17T10:05:19;99584.72;;;22.96;nan
63694;BME280;49839;51.798;10.954;2022-10-17T10:08:01;99598.63;;;23.10;nan
63694;BME280;49839;51.798;10.954;2022-10-17T10:10:30;99600.03;;;23.14;nan
63694;BME280;49839;51.798;10.954;2022-10-17T10:13:04;99590.09;;;23.14;nan
63694;BME280;49839;51.798;10.954;2022-10-17T10:15:35;99602.88;;;23.12;nan
63694;BME280;49839;51.798;10.954;2022-10-17T10:18:27;99602.84;;;23.30;nan
63694;BME280;49839;51.798;10.954;2022-10-17T10:21:07;99586.19;;;23.44;nan
63694;BME280;49839;51.798;10.954;2022-10-17T10:23:37;99600.84;;;23.86;nan
63694;BME280;49839;51.798;10.954;2022-10-17T10:26:18;99595.91;;;23.81;nan
63694;BME280;49839;51.798;10.954;2022-10-17T10:28:56;99598.81;;;23.88;nan
63694;BME280;49839;51.798;10.954;2022-10-17T10:31:29;99606.06;;;23.87;nan
63694;BME280;49839;51.798;10.954;2022-10-17T10:34:02;99593.59;;;23.86;nan
63694;BME280;49839;51.798;10.954;2022-10-17T10:36:48;99598.16;;;23.86;nan
63694;BME280;49839;51.798;10.954;2022-10-17T10:39:33;99598.38;;;23.57;nan
63694;BME280;49839;51.798;10.954;2022-10-17T10:42:05;99589.91;;;23.26;nan
63694;BME280;49839;51.798;10.954;2022-10-17T10:44:37;99598.72;;;23.36;nan
63694;BME280;49839;51.798;10.954;2022-10-17T10:47:14;99611.41;;;23.26;nan
63694;BME280;49839;51.798;10.954;2022-10-17T10:49:45;99601.91;;;23.04;nan
63694;BME280;49839;51.798;10.954;2022-10-17T10:52:22;99602.53;;;22.97;nan
63694;BME280;49839;51.798;10.954;2022-10-17T10:55:01;99598.63;;;22.82;nan
63694;BME280;49839;51.798;10.954;2022-10-17T10:57:33;99593.94;;;22.84;nan
63694;BME280;49839;51.798;10.954;2022-10-17T11:00:08;99582.78;;;22.89;nan
63694;BME280;49839;51.798;10.954;2022-10-17T11:02:48;99593.78;;;22.95;nan
63694;BME280;49839;51.798;10.954;2022-10-17T11:05:24;99585.41;;;23.16;nan
63694;BME280;49839;51.798;10.954;2022-10-17T11:07:59;99590.19;;;23.22;nan
63694;BME280;49839;51.798;10.954;2022-10-17T11:10:36;99585.66;;;23.59;nan
63694;BME280;49839;51.798;10.954;2022-10-17T11:13:26;99568.81;;;23.74;nan
63694;BME280;49839;51.798;10.954;2022-10-17T11:16:00;99579.09;;;23.79;nan
63694;BME280;49839;51.798;10.954;2022-10-17T11:18:37;99571.66;;;23.99;nan
63694;BME280;49839;51.798;10.954;2022-10-17T11:21:12;99577.84;;;23.91;nan
63694;BME280;49839;51.798;10.954;2022-10-17T11:23:50;99550.28;;;23.97;nan
63694;BME280;49839;51.798;10.954;2022-10-17T11:26:26;99556.72;;;24.04;nan
63694;BME280;49839;51.798;10.954;2022-10-17T11:28:55;99561.69;;;24.17;nan
63694;BME280;49839;51.798;10.954;2022-10-17T11:31:28;99555.47;;;24.25;nan
63694;BME280;49839;51.798;10.954;2022-10-17T11:34:02;99552.38;;;24.38;nan
63694;BME280;49839;51.798;10.954;2022-10-17T11:36:34;99545.41;;;24.61;nan
63694;BME280;49839;51.798;10.954;2022-10-17T11:39:09;99548.97;;;24.70;nan
63694;BME280;49839;51.798;10.954;2022-10-17T11:41:42;99547.94;;;24.63;nan
63694;BME280;49839;51.798;10.954;2022-10-17T11:44:19;99556.50;;;24.66;nan
63694;BME280;49839;51.798;10.954;2022-10-17T11:46:53;99550.25;;;24.57;nan
63694;BME280;49839;51.798;10.954;2022-10-17T11:49:27;99522.31;;;24.58;nan
63694;BME280;49839;51.798;10.954;2022-10-17T11:52:06;99553.50;;;24.61;nan
63694;BME280;49839;51.798;10.954;2022-10-17T11:54:41;99555.91;;;24.80;nan
63694;BME280;49839;51.798;10.954;2022-10-17T12:00:21;99546.16;;;25.04;nan
63694;BME280;49839;51.798;10.954;2022-10-17T12:02:54;99555.06;;;24.88;nan
63694;BME280;49839;51.798;10.954;2022-10-17T12:05:29;99554.41;;;24.94;nan
63694;BME280;49839;51.798;10.954;2022-10-17T12:08:03;99551.84;;;24.84;nan
63694;BME280;49839;51.798;10.954;2022-10-17T12:10:45;99566.81;;;24.79;nan
63694;BME280;49839;51.798;10.954;2022-10-17T12:13:50;99548.81;;;24.79;nan
63694;BME280;49839;51.798;10.954;2022-10-17T12:16:49;99539.91;;;24.87;nan
63694;BME280;49839;51.798;10.954;2022-10-17T12:22:18;99574.63;;;24.98;nan
63694;BME280;49839;51.798;10.954;2022-10-17T12:24:56;99557.25;;;24.84;nan
63694;BME280;49839;51.798;10.954;2022-10-17T12:27:46;99532.50;;;24.81;nan
63694;BME280;49839;51.798;10.954;2022-10-17T12:30:21;99550.53;;;24.89;nan
63694;BME280;49839;51.798;10.954;2022-10-17T12:33:15;99540.75;;;24.96;nan
63694;BME280;49839;51.798;10.954;2022-10-17T12:35:49;99558.78;;;24.95;nan
63694;BME280;49839;51.798;10.954;2022-10-17T12:41:01;99554.72;;;24.91;nan
63694;BME280;49839;51.798;10.954;2022-10-17T12:43:48;99546.47;;;24.84;nan
63694;BME280;49839;51.798;10.954;2022-10-17T12:46:46;99532.50;;;24.81;nan
63694;BME280;49839;51.798;10.954;2022-10-17T12:49:40;99538.72;;;24.81;nan
63694;BME280;49839;51.798;10.954;2022-10-17T12:52:20;99529.28;;;24.85;nan
63694;BME280;49839;51.798;10.954;2022-10-17T12:55:11;99543.63;;;24.86;nan
63694;BME280;49839;51.798;10.954;2022-10-17T12:57:47;99551.84;;;24.84;nan
63694;BME280;49839;51.798;10.954;2022-10-17T13:00:21;99515.63;;;24.79;nan
63694;BME280;49839;51.798;10.954;2022-10-17T13:02:53;99552.66;;;24.69;nan
63694;BME280;49839;51.798;10.954;2022-10-17T13:05:27;99542.72;;;24.69;nan
63694;BME280;49839;51.798;10.954;2022-10-17T13:07:58;99552.00;;;24.67;nan
63694;BME280;49839;51.798;10.954;2022-10-17T13:10:30;99563.81;;;24.74;nan
63694;BME280;49839;51.798;10.954;2022-10-17T13:13:04;99568.16;;;24.67;nan
63694;BME280;49839;51.798;10.954;2022-10-17T13:15:36;99552.47;;;24.62;nan
63694;BME280;49839;51.798;10.954;2022-10-17T13:18:04;99558.41;;;24.74;nan
63694;BME280;49839;51.798;10.954;2022-10-17T13:20:34;99538.91;;;24.80;nan
63694;BME280;49839;51.798;10.954;2022-10-17T13:23:03;99555.91;;;24.80;nan
63694;BME280;49839;51.798;10.954;2022-10-17T13:25:32;99552.50;;;24.78;nan
63694;BME280;49839;51.798;10.954;2022-10-17T13:28:10;99553.22;;;24.89;nan
63694;BME280;49839;51.798;10.954;2022-10-17T13:30:45;99532.97;;;24.84;nan
63694;BME280;49839;51.798;10.954;2022-10-17T13:33:32;99527.75;;;24.67;nan
63694;BME280;49839;51.798;10.954;2022-10-17T13:36:03;99553.69;;;24.68;nan
63694;BME280;49839;51.798;10.954;2022-10-17T13:38:37;99519.13;;;24.55;nan
63694;BME280;49839;51.798;10.954;2022-10-17T13:41:11;99534.09;;;24.57;nan
63694;BME280;49839;51.798;10.954;2022-10-17T13:44:01;99543.03;;;24.58;nan
63694;BME280;49839;51.798;10.954;2022-10-17T13:46:32;99549.75;;;24.54;nan
63694;BME280;49839;51.798;10.954;2022-10-17T13:49:17;99553.78;;;24.50;nan
63694;BME280;49839;51.798;10.954;2022-10-17T13:51:50;99551.94;;;24.50;nan
63694;BME280;49839;51.798;10.954;2022-10-17T13:54:32;99546.53;;;24.50;nan
63694;BME280;49839;51.798;10.954;2022-10-17T13:57:03;99551.09;;;24.50;nan